Time;durP1;ratioP1;P1;durP2;ratioP2;P2;SDS_P1;SDS_P2;PMS_P1;PMS_P2;Temp;Humidity;BMP_temperature;BMP_pressure;BME280_temperature;BME280_humidity;BME280_pressure;Samples;Min_cycle;Max_cycle;Signal;HPM_P1;HPM_P2
2022/11/28 00:01:16;;;;;;;14.15;10.20;;;;;;;5.73;100.00;100311.00;5058094;22;20231;-71
2022/11/28 00:03:44;;;;;;;18.75;12.68;;;;;;;5.68;100.00;100314.75;5031435;28;20205;-71
2022/11/28 00:06:10;;;;;;;12.45;10.27;;;;;;;5.58;100.00;100314.94;5037210;28;20196;-72
2022/11/28 00:08:37;;;;;;;12.32;9.80;;;;;;;5.52;100.00;100309.78;5034579;28;20196;-72
2022/11/28 00:11:04;;;;;;;14.20;10.05;;;;;;;5.53;100.00;100310.66;5035529;28;20224;-72
2022/11/28 00:13:31;;;;;;;13.25;10.63;;;;;;;5.49;100.00;100306.31;5036841;28;20335;-71
2022/11/28 00:15:58;;;;;;;14.75;10.23;;;;;;;5.50;100.00;100308.09;5030167;28;20198;-73
2022/11/28 00:18:27;;;;;;;14.77;9.48;;;;;;;5.48;100.00;100293.88;5048992;28;20248;-70
2022/11/28 00:20:59;;;;;;;13.30;9.65;;;;;;;5.46;100.00;100306.41;5058292;28;20200;-72
2022/11/28 00:23:25;;;;;;;14.38;10.43;;;;;;;5.39;100.00;100293.19;5057610;28;20208;-71
2022/11/28 00:25:57;;;;;;;12.10;9.15;;;;;;;5.37;100.00;100289.69;5050131;28;20219;-72
2022/11/28 00:28:23;;;;;;;15.10;10.90;;;;;;;5.36;100.00;100285.28;5054932;28;20249;-72
2022/11/28 00:30:50;;;;;;;14.02;9.60;;;;;;;5.36;100.00;100284.38;5051636;28;20215;-73
2022/11/28 00:33:16;;;;;;;15.98;10.55;;;;;;;5.27;100.00;100274.84;5037246;28;20277;-72
2022/11/28 00:35:44;;;;;;;16.75;12.05;;;;;;;5.28;100.00;100278.38;5044835;28;20203;-73
2022/11/28 00:38:11;;;;;;;14.48;10.50;;;;;;;5.23;100.00;100274.03;5047318;28;20276;-72
2022/11/28 00:40:37;;;;;;;14.48;10.02;;;;;;;5.14;100.00;100278.72;5045121;28;20208;-71
2022/11/28 00:43:04;;;;;;;14.95;9.88;;;;;;;5.12;100.00;100273.41;5045472;28;20231;-71
2022/11/28 00:45:31;;;;;;;11.85;9.48;;;;;;;5.26;100.00;100269.53;5048020;28;20203;-72
2022/11/28 00:47:57;;;;;;;14.75;11.13;;;;;;;5.13;100.00;100269.84;5037108;28;20676;-72
2022/11/28 00:50:24;;;;;;;14.80;10.88;;;;;;;5.11;100.00;100269.00;5044730;28;20237;-73
2022/11/28 00:52:52;;;;;;;17.13;11.70;;;;;;;5.10;100.00;100272.56;5043188;28;20290;-71
2022/11/28 00:55:18;;;;;;;16.20;10.85;;;;;;;5.06;100.00;100280.69;5046796;28;20202;-70
2022/11/28 00:57:46;;;;;;;19.13;10.55;;;;;;;5.07;100.00;100283.34;5034467;28;20213;-71
2022/11/28 01:00:14;;;;;;;14.52;9.77;;;;;;;5.04;100.00;100288.72;5048112;28;20282;-71
2022/11/28 01:02:40;;;;;;;15.95;10.00;;;;;;;5.07;100.00;100294.00;5032387;28;20310;-72
2022/11/28 01:05:07;;;;;;;14.35;10.13;;;;;;;5.10;100.00;100285.06;5043003;28;20202;-71
2022/11/28 01:07:34;;;;;;;13.43;10.20;;;;;;;5.09;100.00;100286.84;5040902;28;20198;-72
2022/11/28 01:10:02;;;;;;;14.00;10.35;;;;;;;5.06;100.00;100278.91;5026041;28;20206;-70
2022/11/28 01:12:28;;;;;;;14.85;11.13;;;;;;;5.07;100.00;100277.13;5042426;28;20225;-71
2022/11/28 01:14:57;;;;;;;12.15;9.88;;;;;;;5.07;100.00;100278.00;5050116;28;20214;-72
2022/11/28 01:17:23;;;;;;;13.60;9.95;;;;;;;5.06;100.00;100273.56;5038637;28;20196;-73
2022/11/28 01:19:50;;;;;;;12.48;10.52;;;;;;;5.09;100.00;100275.28;5055084;28;20573;-72
2022/11/28 01:22:16;;;;;;;15.27;10.05;;;;;;;5.11;100.00;100276.13;5046343;28;20304;-72
2022/11/28 01:24:43;;;;;;;16.08;11.48;;;;;;;5.12;100.00;100269.88;5048091;28;20290;-73
2022/11/28 01:27:11;;;;;;;13.23;9.27;;;;;;;5.22;100.00;100277.63;5045181;28;20758;-72
2022/11/28 01:29:38;;;;;;;12.77;9.68;;;;;;;5.23;100.00;100274.03;5041248;28;20199;-72
2022/11/28 01:32:05;;;;;;;12.68;9.40;;;;;;;5.28;100.00;100270.38;5027819;28;20698;-71
2022/11/28 01:34:31;;;;;;;13.80;9.23;;;;;;;5.26;100.00;100266.84;5021874;28;20206;-70
2022/11/28 01:36:58;;;;;;;16.27;11.15;;;;;;;5.26;100.00;100258.84;5023115;28;20239;-71
2022/11/28 01:39:25;;;;;;;12.60;9.35;;;;;;;5.28;100.00;100255.22;5021370;28;20249;-71
2022/11/28 01:41:52;;;;;;;13.15;9.95;;;;;;;5.36;100.00;100260.34;5042135;28;20235;-71
2022/11/28 01:44:56;;;;;;;13.88;10.10;;;;;;;5.30;100.00;100249.84;5039114;28;20211;-71
2022/11/28 01:47:27;;;;;;;16.13;10.70;;;;;;;5.27;100.00;100241.88;5046027;28;20229;-72
2022/11/28 01:49:55;;;;;;;14.10;9.45;;;;;;;5.28;100.00;100228.50;5047502;28;20211;-72
2022/11/28 01:52:22;;;;;;;14.50;11.10;;;;;;;5.31;100.00;100225.75;5043607;28;20233;-72
2022/11/28 01:54:53;;;;;;;15.15;10.15;;;;;;;5.27;100.00;100221.44;5048584;28;20589;-72
2022/11/28 01:57:23;;;;;;;14.75;10.45;;;;;;;5.32;100.00;100224.84;5034430;28;20195;-73
2022/11/28 01:59:58;;;;;;;16.80;12.40;;;;;;;5.31;100.00;100216.88;5042472;28;20207;-71
2022/11/28 02:02:32;;;;;;;15.45;11.52;;;;;;;5.33;100.00;100223.91;5045675;28;20254;-72
2022/11/28 02:04:59;;;;;;;12.73;10.75;;;;;;;5.28;100.00;100220.50;5044100;28;20211;-72
2022/11/28 02:07:26;;;;;;;19.67;11.93;;;;;;;5.26;100.00;100213.44;5033107;28;20972;-71
2022/11/28 02:09:53;;;;;;;16.40;11.82;;;;;;;5.26;100.00;100210.78;5030533;28;20208;-71
2022/11/28 02:12:34;;;;;;;15.88;12.73;;;;;;;5.25;100.00;100212.56;5043337;28;20242;-74
2022/11/28 02:15:24;;;;;;;15.02;10.90;;;;;;;5.25;100.00;100201.03;5041065;28;20209;-71
2022/11/28 02:18:08;;;;;;;17.13;11.95;;;;;;;5.27;100.00;100200.06;5041081;28;20207;-71
2022/11/28 02:21:17;;;;;;;14.77;11.70;;;;;;;5.28;100.00;100203.59;5039435;28;20190;-73
2022/11/28 02:24:07;;;;;;;14.43;12.05;;;;;;;5.21;100.00;100189.53;5028273;28;20202;-72
2022/11/28 02:26:53;;;;;;;16.20;12.20;;;;;;;5.24;100.00;100202.81;5036762;28;20210;-72
2022/11/28 02:29:39;;;;;;;14.70;12.40;;;;;;;5.17;100.00;100207.41;5032482;28;20227;-72
2022/11/28 02:32:21;;;;;;;17.35;13.10;;;;;;;5.19;100.00;100200.25;5034522;28;20226;-71
2022/11/28 02:34:57;;;;;;;15.02;11.88;;;;;;;5.18;100.00;100201.19;5040924;28;20202;-72
2022/11/28 02:37:29;;;;;;;18.45;11.68;;;;;;;5.19;100.00;100192.25;5029202;28;20595;-71
2022/11/28 02:40:07;;;;;;;15.20;11.63;;;;;;;5.25;100.00;100199.22;5047102;28;20206;-71
2022/11/28 02:42:46;;;;;;;17.27;12.73;;;;;;;5.20;100.00;100201.13;5037474;28;20216;-73
2022/11/28 02:45:19;;;;;;;15.80;11.60;;;;;;;5.26;100.00;100200.09;5045613;28;20205;-73
2022/11/28 02:47:50;;;;;;;15.98;12.27;;;;;;;5.27;100.00;100199.16;5030086;28;20984;-71
2022/11/28 02:50:22;;;;;;;15.77;11.45;;;;;;;5.27;100.00;100180.47;5028053;28;20571;-72
2022/11/28 02:52:52;;;;;;;14.95;11.68;;;;;;;5.27;100.00;100177.81;5035036;28;20509;-71
2022/11/28 02:55:19;;;;;;;14.35;11.05;;;;;;;5.22;100.00;100189.50;5041595;28;20211;-73
2022/11/28 02:57:48;;;;;;;15.45;11.38;;;;;;;5.25;100.00;100188.53;5031583;28;20704;-71
2022/11/28 03:00:24;;;;;;;16.60;12.23;;;;;;;5.26;100.00;100182.28;5044018;28;20577;-72
2022/11/28 03:03:03;;;;;;;14.32;11.50;;;;;;;5.25;100.00;100182.34;5040032;28;20760;-73
2022/11/28 03:05:42;;;;;;;12.55;10.30;;;;;;;5.26;100.00;100173.41;5036187;28;20206;-73
2022/11/28 03:08:20;;;;;;;14.45;10.77;;;;;;;5.28;100.00;100180.44;5039009;28;20685;-71
2022/11/28 03:10:54;;;;;;;14.77;11.35;;;;;;;5.24;100.00;100178.78;5037923;28;20282;-71
2022/11/28 03:13:31;;;;;;;15.93;10.65;;;;;;;5.30;100.00;100181.28;5044680;28;20226;-71
2022/11/28 03:16:10;;;;;;;14.23;11.30;;;;;;;5.28;100.00;100190.25;5025004;28;20200;-72
2022/11/28 03:18:41;;;;;;;18.63;11.60;;;;;;;5.22;100.00;100181.50;5026882;28;20204;-72
2022/11/28 03:21:16;;;;;;;14.48;12.88;;;;;;;5.13;100.00;100184.41;5042982;28;20233;-70
2022/11/28 03:23:46;;;;;;;14.15;11.02;;;;;;;5.15;100.00;100179.88;5039483;28;20195;-72
2022/11/28 03:26:20;;;;;;;14.15;10.80;;;;;;;5.08;100.00;100172.97;5040569;28;20200;-71
2022/11/28 03:28:53;;;;;;;13.63;11.00;;;;;;;5.04;100.00;100163.28;5035945;28;20205;-72
2022/11/28 03:31:24;;;;;;;12.90;10.82;;;;;;;5.03;100.00;100153.53;5033443;28;20372;-73
2022/11/28 03:33:57;;;;;;;14.18;10.90;;;;;;;5.05;100.00;100154.38;5033618;28;20225;-72
2022/11/28 03:36:27;;;;;;;12.32;9.85;;;;;;;5.04;100.00;100155.28;5037693;28;20199;-71
2022/11/28 03:38:59;;;;;;;12.68;9.70;;;;;;;5.03;100.00;100150.00;5045592;28;20641;-72
2022/11/28 03:41:31;;;;;;;15.60;10.82;;;;;;;5.03;100.00;100155.34;5032157;28;20228;-72
2022/11/28 03:44:00;;;;;;;14.48;11.10;;;;;;;5.00;100.00;100149.16;5038197;28;20202;-73
2022/11/28 03:46:34;;;;;;;12.48;9.82;;;;;;;4.98;100.00;100147.44;5031007;28;20204;-72
2022/11/28 03:49:04;;;;;;;14.27;10.68;;;;;;;4.99;100.00;100139.38;5031049;28;20296;-70
2022/11/28 03:51:37;;;;;;;12.93;9.98;;;;;;;5.00;100.00;100134.94;5039753;28;20767;-72
2022/11/28 03:54:09;;;;;;;14.20;11.18;;;;;;;5.00;100.00;100141.16;5047417;28;20221;-73
2022/11/28 03:56:42;;;;;;;15.23;11.90;;;;;;;5.01;100.00;100144.69;5043390;28;20228;-73
2022/11/28 03:59:13;;;;;;;14.27;10.77;;;;;;;5.03;100.00;100131.31;5041828;28;20570;-72
2022/11/28 04:01:52;;;;;;;13.80;10.50;;;;;;;5.07;100.00;100133.00;5040974;28;20229;-71
2022/11/28 04:04:28;;;;;;;13.32;10.43;;;;;;;5.08;100.00;100130.25;5038256;28;20183;-72
2022/11/28 04:06:58;;;;;;;16.38;11.15;;;;;;;5.01;100.00;100134.00;5028305;28;20282;-72
2022/11/28 04:09:37;;;;;;;15.43;11.48;;;;;;;5.03;100.00;100136.66;5035339;28;20269;-72
2022/11/28 04:12:10;;;;;;;15.93;11.23;;;;;;;5.03;100.00;100121.50;5036042;28;20286;-72
2022/11/28 04:14:41;;;;;;;15.00;10.93;;;;;;;5.02;100.00;100125.09;5043240;28;20219;-71
2022/11/28 04:17:12;;;;;;;16.35;10.93;;;;;;;5.00;100.00;100118.94;5042483;28;20197;-72
2022/11/28 04:19:44;;;;;;;15.07;11.48;;;;;;;4.96;100.00;100114.59;5045287;28;20292;-73
2022/11/28 04:22:18;;;;;;;14.25;10.85;;;;;;;4.92;100.00;100118.25;5023394;28;20229;-71
2022/11/28 04:24:49;;;;;;;15.23;11.77;;;;;;;4.95;100.00;100113.72;5018985;28;20610;-72
2022/11/28 04:27:22;;;;;;;16.13;11.90;;;;;;;4.96;100.00;100110.13;5047209;28;20202;-72
2022/11/28 04:29:53;;;;;;;15.15;12.00;;;;;;;4.94;100.00;100111.09;5047149;28;20217;-72
2022/11/28 04:32:22;;;;;;;16.08;11.98;;;;;;;4.92;100.00;100108.44;5026991;28;20222;-73
2022/11/28 04:34:55;;;;;;;15.00;11.32;;;;;;;4.93;100.00;100106.63;5037835;28;20230;-73
2022/11/28 04:37:25;;;;;;;17.80;12.32;;;;;;;4.89;100.00;100113.88;5035592;28;20289;-72
2022/11/28 04:39:54;;;;;;;15.57;11.88;;;;;;;4.87;100.00;100109.50;5044175;28;20293;-72
2022/11/28 04:42:26;;;;;;;17.23;12.05;;;;;;;4.93;100.00;100107.53;5039798;28;20301;-73
2022/11/28 04:44:59;;;;;;;17.20;11.50;;;;;;;4.92;100.00;100103.09;5046789;28;20221;-73
2022/11/28 04:47:26;;;;;;;14.85;11.48;;;;;;;4.89;100.00;100107.66;5038256;28;20222;-73
2022/11/28 04:49:55;;;;;;;17.50;12.10;;;;;;;4.91;100.00;100103.16;5035632;28;20234;-74
2022/11/28 04:52:28;;;;;;;17.25;12.38;;;;;;;4.96;100.00;100110.13;5052413;28;20572;-73
2022/11/28 04:55:02;;;;;;;18.23;12.70;;;;;;;5.07;100.00;100104.50;5053620;28;20213;-71
2022/11/28 04:57:33;;;;;;;17.55;12.30;;;;;;;5.01;100.00;100102.84;5038646;28;20209;-71
2022/11/28 05:00:03;;;;;;;17.17;12.50;;;;;;;5.00;100.00;100103.78;5049244;28;20205;-71
2022/11/28 05:02:31;;;;;;;15.85;11.60;;;;;;;5.02;100.00;100109.09;5045175;28;20229;-73
2022/11/28 05:04:59;;;;;;;14.70;11.45;;;;;;;4.97;100.00;100105.66;5041276;28;20204;-72
2022/11/28 05:07:25;;;;;;;19.73;12.93;;;;;;;4.98;100.00;100112.75;5039017;28;20234;-71
2022/11/28 05:09:54;;;;;;;14.60;11.32;;;;;;;4.98;100.00;100107.41;5046335;28;20210;-71
2022/11/28 05:12:20;;;;;;;16.63;11.70;;;;;;;5.01;100.00;100101.97;5048990;28;20213;-72
2022/11/28 05:14:47;;;;;;;18.20;12.20;;;;;;;4.99;100.00;100107.34;5041819;28;20221;-73
2022/11/28 05:17:14;;;;;;;17.20;13.13;;;;;;;4.99;100.00;100106.47;5047025;28;20289;-73
2022/11/28 05:19:40;;;;;;;16.80;12.35;;;;;;;4.98;100.00;100102.94;5051572;28;20202;-73
2022/11/28 05:22:08;;;;;;;17.00;12.48;;;;;;;4.96;100.00;100104.78;5049092;28;20246;-72
2022/11/28 05:24:35;;;;;;;15.93;11.88;;;;;;;4.96;100.00;100096.78;5028952;28;20205;-75
2022/11/28 05:27:02;;;;;;;20.13;13.20;;;;;;;4.95;100.00;100097.69;5027357;28;20204;-74
2022/11/28 05:29:28;;;;;;;19.52;13.40;;;;;;;4.99;100.00;100088.66;5041512;28;20234;-73
2022/11/28 05:31:55;;;;;;;17.20;13.00;;;;;;;4.96;100.00;100093.22;5036673;28;20227;-73
2022/11/28 05:34:21;;;;;;;18.30;12.75;;;;;;;4.94;100.00;100106.59;5044202;28;20758;-71
2022/11/28 05:36:48;;;;;;;18.42;12.52;;;;;;;4.93;100.00;100099.53;5043990;28;20202;-74
2022/11/28 05:39:16;;;;;;;18.85;13.35;;;;;;;4.92;100.00;100096.91;5044823;28;20206;-71
2022/11/28 05:41:43;;;;;;;16.13;11.80;;;;;;;4.90;100.00;100090.72;5043031;28;20219;-72
2022/11/28 05:44:10;;;;;;;19.13;13.43;;;;;;;4.96;100.00;100087.91;5039825;28;20206;-72
2022/11/28 05:46:36;;;;;;;18.25;13.10;;;;;;;4.98;100.00;100094.94;5038250;28;20204;-71
2022/11/28 05:49:03;;;;;;;21.95;15.45;;;;;;;4.97;100.00;100087.84;5041715;28;20199;-73
2022/11/28 05:51:29;;;;;;;22.25;14.75;;;;;;;4.98;100.00;100094.06;5053667;28;20339;-72
2022/11/28 05:53:56;;;;;;;17.92;13.50;;;;;;;4.98;100.00;100097.59;5062700;28;20218;-71
2022/11/28 05:56:24;;;;;;;20.30;13.13;;;;;;;4.99;100.00;100094.00;5044962;28;20283;-74
2022/11/28 05:58:52;;;;;;;19.80;13.98;;;;;;;4.95;100.00;100089.69;5031886;28;20209;-73
2022/11/28 06:01:21;;;;;;;17.95;12.98;;;;;;;4.92;100.00;100088.88;5045253;28;20234;-72
2022/11/28 06:03:47;;;;;;;16.30;12.90;;;;;;;4.96;100.00;100087.91;5057869;23;20233;-74
2022/11/28 06:06:16;;;;;;;18.45;13.70;;;;;;;4.95;100.00;100078.13;5053990;28;20654;-73
2022/11/28 06:08:43;;;;;;;16.95;13.02;;;;;;;4.98;100.00;100088.72;5048251;28;20219;-74
2022/11/28 06:11:13;;;;;;;19.63;13.45;;;;;;;4.98;100.00;100086.94;5046911;28;20209;-73
2022/11/28 06:13:41;;;;;;;16.52;13.05;;;;;;;4.96;100.00;100088.75;5064165;28;20250;-72
2022/11/28 06:16:09;;;;;;;19.98;13.50;;;;;;;4.97;100.00;100092.31;5053167;28;20204;-73
2022/11/28 06:18:36;;;;;;;18.17;13.00;;;;;;;4.91;100.00;100081.81;5037113;28;20205;-72
2022/11/28 06:21:02;;;;;;;15.75;12.60;;;;;;;4.90;100.00;100090.72;5045767;28;20227;-73
2022/11/28 06:23:29;;;;;;;21.67;14.75;;;;;;;4.94;100.00;100089.72;5064609;28;20248;-73
2022/11/28 06:25:55;;;;;;;16.92;13.27;;;;;;;4.91;100.00;100089.81;5057940;28;20285;-74
2022/11/28 06:28:22;;;;;;;18.98;13.48;;;;;;;4.88;100.00;100085.41;5057752;28;20197;-74
2022/11/28 06:30:50;;;;;;;20.27;13.40;;;;;;;4.84;100.00;100086.44;5050832;28;20260;-74
2022/11/28 06:33:16;;;;;;;19.23;13.75;;;;;;;4.87;100.00;100083.69;5056406;28;20308;-74
2022/11/28 06:35:43;;;;;;;19.10;13.32;;;;;;;4.86;100.00;100091.72;5056456;28;20206;-74
2022/11/28 06:38:09;;;;;;;17.85;13.45;;;;;;;4.89;100.00;100089.00;5055341;28;20703;-74
2022/11/28 06:40:38;;;;;;;20.55;13.57;;;;;;;4.89;100.00;100084.50;5055949;28;20202;-74
2022/11/28 06:43:05;;;;;;;64.80;38.63;;;;;;;4.94;100.00;100084.38;5054819;28;20228;-73
2022/11/28 06:45:33;;;;;;;29.38;18.95;;;;;;;4.94;100.00;100089.72;5056545;28;20203;-74
2022/11/28 06:48:01;;;;;;;18.85;13.85;;;;;;;4.89;100.00;100083.66;5055527;28;20674;-74
2022/11/28 06:50:28;;;;;;;19.08;14.15;;;;;;;4.87;100.00;100088.16;5056008;28;20202;-74
2022/11/28 06:52:56;;;;;;;18.00;13.52;;;;;;;4.88;100.00;100080.09;5054907;28;20222;-74
2022/11/28 06:55:23;;;;;;;22.10;13.57;;;;;;;4.90;100.00;100080.06;5055279;28;20703;-73
2022/11/28 06:57:49;;;;;;;17.55;12.85;;;;;;;4.85;100.00;100084.63;5054733;28;20202;-74
2022/11/28 07:00:17;;;;;;;18.17;13.35;;;;;;;4.81;100.00;100100.72;5061169;28;20286;-75
2022/11/28 07:02:43;;;;;;;19.23;12.90;;;;;;;4.84;100.00;100097.13;5057756;28;20605;-73
2022/11/28 07:05:11;;;;;;;19.45;13.02;;;;;;;4.70;100.00;100102.78;5056042;28;20198;-74
2022/11/28 07:07:38;;;;;;;17.33;13.98;;;;;;;4.75;100.00;100102.69;5055227;28;20306;-74
2022/11/28 07:10:06;;;;;;;18.75;13.65;;;;;;;4.72;100.00;100100.97;5054981;28;20200;-74
2022/11/28 07:12:32;;;;;;;19.70;13.38;;;;;;;4.71;100.00;100101.03;5060148;28;20283;-74
2022/11/28 07:14:59;;;;;;;20.00;13.60;;;;;;;4.72;100.00;100103.63;5055404;28;20695;-74
2022/11/28 07:17:25;;;;;;;42.67;26.05;;;;;;;4.78;100.00;100113.28;5052948;28;20212;-74
2022/11/28 07:19:52;;;;;;;21.50;15.15;;;;;;;4.73;100.00;100108.06;5034133;28;20277;-74
2022/11/28 07:22:21;;;;;;;22.67;14.10;;;;;;;4.74;100.00;100111.59;5034960;28;20596;-74
2022/11/28 07:24:48;;;;;;;22.38;13.30;;;;;;;4.74;100.00;100112.47;5039596;28;20199;-75
2022/11/28 07:27:14;;;;;;;18.20;13.13;;;;;;;4.75;100.00;100111.56;5035127;28;20280;-74
2022/11/28 07:29:41;;;;;;;19.38;14.50;;;;;;;4.76;100.00;100107.09;5034325;28;20206;-74
2022/11/28 07:32:07;;;;;;;19.17;13.65;;;;;;;4.81;100.00;100110.53;5034468;28;20622;-73
2022/11/28 07:34:34;;;;;;;20.25;13.60;;;;;;;4.87;100.00;100109.50;5034705;28;20232;-73
2022/11/28 07:37:00;;;;;;;19.65;13.95;;;;;;;4.91;100.00;100111.16;5040092;28;20586;-73
2022/11/28 07:39:28;;;;;;;18.05;13.20;;;;;;;4.91;100.00;100113.84;5033809;28;20203;-74
2022/11/28 07:41:55;;;;;;;19.30;13.15;;;;;;;4.96;100.00;100099.44;5035097;28;20230;-73
2022/11/28 07:44:21;;;;;;;13.77;11.65;;;;;;;5.00;100.00;100105.59;5034571;28;20756;-74
2022/11/28 07:46:48;;;;;;;19.40;13.25;;;;;;;5.06;100.00;100109.88;5034257;28;20298;-74
2022/11/28 07:49:15;;;;;;;18.50;12.48;;;;;;;5.03;100.00;100115.28;5035023;28;20207;-74
2022/11/28 07:51:42;;;;;;;18.60;12.43;;;;;;;5.01;100.00;100118.00;5035447;28;20234;-74
2022/11/28 07:54:08;;;;;;;21.00;13.43;;;;;;;5.06;100.00;100115.19;5035821;28;20261;-73
2022/11/28 07:56:38;;;;;;;18.95;12.55;;;;;;;5.13;100.00;100115.00;5035240;28;20208;-74
2022/11/28 07:59:06;;;;;;;19.65;12.93;;;;;;;5.19;100.00;100116.63;5035030;28;20235;-74
2022/11/28 08:01:35;;;;;;;16.48;12.35;;;;;;;5.22;100.00;100119.19;5035652;28;20207;-74
2022/11/28 08:04:06;;;;;;;18.98;12.80;;;;;;;5.24;100.00;100117.34;5037245;28;20204;-74
2022/11/28 08:06:36;;;;;;;19.33;13.18;;;;;;;5.30;100.00;100105.66;5038991;28;20240;-74
2022/11/28 08:09:03;;;;;;;16.73;13.00;;;;;;;5.33;100.00;100106.41;5037840;28;20495;-74
2022/11/28 08:11:31;;;;;;;20.95;14.27;;;;;;;5.37;100.00;100109.88;5037780;28;20210;-73
2022/11/28 08:13:59;;;;;;;21.55;14.10;;;;;;;5.43;100.00;100104.38;5038835;28;20242;-74
2022/11/28 08:16:28;;;;;;;18.90;13.82;;;;;;;5.48;100.00;100096.22;5035997;28;20207;-72
2022/11/28 08:18:55;;;;;;;20.90;13.07;;;;;;;5.53;100.00;100108.50;5034941;28;20214;-73
2022/11/28 08:21:26;;;;;;;27.30;17.42;;;;;;;5.56;100.00;100102.19;5035772;28;20214;-74
2022/11/28 08:23:54;;;;;;;30.48;20.88;;;;;;;5.58;100.00;100105.72;5036140;28;20193;-75
2022/11/28 08:26:22;;;;;;;24.40;17.52;;;;;;;5.66;100.00;100106.38;5034552;28;20213;-72
2022/11/28 08:28:49;;;;;;;24.48;16.67;;;;;;;5.70;100.00;100108.03;5037496;28;20307;-74
2022/11/28 08:31:19;;;;;;;26.35;20.15;;;;;;;5.75;100.00;100110.56;5037438;28;20737;-76
2022/11/28 08:33:47;;;;;;;21.90;14.77;;;;;;;5.75;100.00;100103.41;5036589;28;20319;-73
2022/11/28 08:36:16;;;;;;;21.00;15.65;;;;;;;5.81;100.00;100116.59;5036049;28;20204;-73
2022/11/28 08:38:45;;;;;;;20.80;14.82;;;;;;;5.88;100.00;100101.25;5034730;28;20240;-73
2022/11/28 08:41:13;;;;;;;23.27;16.67;;;;;;;5.94;100.00;100116.22;5035818;28;20736;-73
2022/11/28 08:43:39;;;;;;;25.23;16.63;;;;;;;5.98;100.00;100113.44;5036195;28;20231;-75
2022/11/28 08:46:10;;;;;;;19.90;13.85;;;;;;;6.03;100.00;100100.78;5035542;28;20192;-73
2022/11/28 08:48:39;;;;;;;19.40;13.85;;;;;;;6.04;100.00;100091.84;5038371;28;20189;-73
2022/11/28 08:51:06;;;;;;;17.63;12.80;;;;;;;6.14;100.00;100104.94;5038253;28;20299;-73
2022/11/28 08:53:35;;;;;;;20.98;14.27;;;;;;;6.20;100.00;100097.59;5036620;28;20263;-73
2022/11/28 08:56:02;;;;;;;17.90;13.60;;;;;;;6.20;100.00;100094.03;5035093;28;20229;-74
2022/11/28 08:58:29;;;;;;;20.08;14.43;;;;;;;6.22;100.00;100100.22;5036391;28;20268;-73
2022/11/28 09:00:55;;;;;;;19.38;14.25;;;;;;;6.23;100.00;100096.63;5035423;28;20306;-74
2022/11/28 09:03:22;;;;;;;20.98;14.02;;;;;;;6.20;100.00;100086.03;5035755;28;20264;-73
2022/11/28 09:05:50;;;;;;;21.95;13.32;;;;;;;6.26;100.00;100091.16;5036001;28;20201;-74
2022/11/28 09:08:19;;;;;;;18.13;12.95;;;;;;;6.30;100.00;100098.16;5034270;28;20628;-74
2022/11/28 09:10:46;;;;;;;18.63;13.95;;;;;;;6.28;100.00;100112.50;5035123;28;20264;-73
2022/11/28 09:13:14;;;;;;;19.13;14.20;;;;;;;6.35;100.00;100106.91;5037070;28;20218;-72
2022/11/28 09:15:42;;;;;;;18.60;12.68;;;;;;;6.46;100.00;100112.78;5040676;28;20271;-74
2022/11/28 09:18:10;;;;;;;16.75;12.90;;;;;;;6.55;100.00;100118.75;5039290;28;20283;-72
2022/11/28 09:20:36;;;;;;;19.02;13.98;;;;;;;6.57;100.00;100115.09;5035637;28;20272;-73
2022/11/28 09:23:04;;;;;;;22.90;18.70;;;;;;;6.67;100.00;100119.22;5037881;28;20232;-75
2022/11/28 09:25:31;;;;;;;27.05;19.27;;;;;;;6.77;100.00;100124.25;5033801;28;20205;-73
2022/11/28 09:28:00;;;;;;;23.38;17.35;;;;;;;6.80;100.00;100116.97;5033364;28;20205;-74
2022/11/28 09:30:26;;;;;;;23.13;15.20;;;;;;;6.93;100.00;100117.44;5034012;28;20219;-73
2022/11/28 09:32:53;;;;;;;21.80;15.90;;;;;;;6.99;100.00;100117.25;5033561;28;20589;-74
2022/11/28 09:35:19;;;;;;;21.38;14.63;;;;;;;7.10;100.00;100108.84;5034528;28;20236;-73
2022/11/28 09:37:46;;;;;;;25.98;15.40;;;;;;;7.27;100.00;100108.22;5036501;28;20304;-75
2022/11/28 09:40:17;;;;;;;20.75;15.02;;;;;;;7.27;100.00;100098.34;5037719;28;20468;-74
2022/11/28 09:42:45;;;;;;;21.90;13.90;;;;;;;7.37;100.00;100093.56;5047976;28;20298;-73
2022/11/28 09:45:16;;;;;;;18.80;13.82;;;;;;;7.35;100.00;100089.16;5055531;28;20187;-74
2022/11/28 09:47:47;;;;;;;16.90;12.85;;;;;;;7.36;100.00;100093.59;5055256;28;20213;-74
2022/11/28 09:50:19;;;;;;;19.35;13.13;;;;;;;7.29;100.00;100091.16;5054723;28;20262;-73
2022/11/28 09:52:53;;;;;;;20.80;14.25;;;;;;;7.32;100.00;100087.47;5055105;28;20252;-73
2022/11/28 09:55:29;;;;;;;17.73;12.63;;;;;;;7.32;100.00;100085.66;5052894;28;20244;-72
2022/11/28 09:57:56;;;;;;;17.45;13.00;;;;;;;7.38;100.00;100087.25;5053039;28;20190;-72
2022/11/28 10:00:29;;;;;;;18.88;13.25;;;;;;;7.39;100.00;100089.00;5053387;28;20245;-72
2022/11/28 10:03:13;;;;;;;21.20;13.40;;;;;;;7.36;100.00;100083.75;5051089;28;20256;-74
2022/11/28 10:05:45;;;;;;;19.00;13.75;;;;;;;7.42;100.00;100083.53;5050011;28;20277;-72
2022/11/28 10:08:25;;;;;;;19.70;13.70;;;;;;;7.49;100.00;100086.88;5045994;28;20214;-72
2022/11/28 10:11:02;;;;;;;19.30;13.77;;;;;;;7.61;100.00;100081.03;5041998;28;20606;-73
2022/11/28 10:13:41;;;;;;;21.20;12.80;;;;;;;7.62;100.00;100074.75;5037813;28;20256;-73
2022/11/28 10:16:14;;;;;;;16.63;12.02;;;;;;;7.67;100.00;100086.16;5037143;28;20214;-73
2022/11/28 10:18:47;;;;;;;16.52;11.20;;;;;;;7.55;100.00;100086.59;5035857;28;20200;-72
2022/11/28 10:21:24;;;;;;;20.98;16.35;;;;;;;7.34;100.00;100092.78;5036271;28;20244;-74
2022/11/28 10:23:54;;;;;;;19.88;14.57;;;;;;;7.43;100.00;100081.72;5036433;28;20660;-73
2022/11/28 10:26:31;;;;;;;27.25;19.33;;;;;;;7.57;100.00;100083.88;5036132;28;20190;-73
2022/11/28 10:29:02;;;;;;;21.50;14.38;;;;;;;7.75;100.00;100076.94;5035304;28;20186;-73
2022/11/28 10:31:33;;;;;;;17.08;12.90;;;;;;;7.86;100.00;100075.59;5036114;28;20212;-72
2022/11/28 10:34:07;;;;;;;19.33;13.05;;;;;;;7.67;100.00;100078.13;5035660;28;20255;-74
2022/11/28 10:36:47;;;;;;;18.27;13.90;;;;;;;7.64;100.00;100075.56;5036047;28;20232;-74
2022/11/28 10:39:14;;;;;;;14.95;11.65;;;;;;;7.75;100.00;100074.25;5035479;28;20289;-74
2022/11/28 10:42:10;;;;;;;16.38;12.43;;;;;;;7.75;100.00;100068.91;5037089;28;20198;-74
2022/11/28 10:44:43;;;;;;;17.13;11.90;;;;;;;7.64;100.00;100074.66;5038312;28;20210;-73
2022/11/28 10:47:19;;;;;;;18.02;13.30;;;;;;;7.77;100.00;100069.72;5039148;28;20288;-74
2022/11/28 10:49:53;;;;;;;20.33;12.60;;;;;;;7.79;100.00;100076.75;5039242;28;20206;-75
2022/11/28 10:52:26;;;;;;;16.55;12.57;;;;;;;7.71;100.00;100058.31;5038044;28;20229;-74
2022/11/28 10:55:07;;;;;;;16.10;12.88;;;;;;;7.80;100.00;100064.22;5037025;28;20218;-74
2022/11/28 10:57:41;;;;;;;15.55;12.02;;;;;;;7.75;100.00;100066.22;5036972;28;20216;-74
2022/11/28 11:00:12;;;;;;;16.33;12.25;;;;;;;7.90;100.00;100062.94;5037617;28;20629;-75
2022/11/28 11:02:44;;;;;;;15.07;12.35;;;;;;;7.89;100.00;100054.03;5038028;28;20324;-75
2022/11/28 11:05:14;;;;;;;14.15;12.27;;;;;;;8.07;100.00;100059.56;5040239;28;20216;-74
2022/11/28 11:07:47;;;;;;;14.52;12.32;;;;;;;8.01;100.00;100057.16;5038893;28;20539;-75
2022/11/28 11:10:16;;;;;;;15.00;11.30;;;;;;;8.24;100.00;100053.53;5041955;28;20241;-74
2022/11/28 11:12:45;;;;;;;16.83;12.13;;;;;;;8.32;100.00;100054.97;5040380;28;20225;-73
2022/11/28 11:15:17;;;;;;;13.82;11.05;;;;;;;8.51;100.00;100044.34;5039320;28;20228;-74
2022/11/28 11:17:44;;;;;;;14.93;11.10;;;;;;;8.64;100.00;100038.44;5037238;28;20277;-72
2022/11/28 11:20:33;;;;;;;15.13;11.38;;;;;;;8.68;100.00;100040.06;5037541;28;20217;-75
2022/11/28 11:23:02;;;;;;;12.45;10.60;;;;;;;8.40;100.00;100040.34;5036633;28;20237;-75